createdAt,value
2023-08-27T00:00:23.668Z,28.62
2023-08-27T00:02:50.667Z,28.62
2023-08-27T00:05:17.773Z,28.62
2023-08-27T00:07:44.768Z,28.62
2023-08-27T00:10:12.108Z,28.64
2023-08-27T00:12:39.337Z,28.64
2023-08-27T00:15:07.114Z,28.65
2023-08-27T00:17:34.279Z,28.66
2023-08-27T00:20:01.828Z,28.66
2023-08-27T00:22:29.135Z,28.68
2023-08-27T00:24:56.179Z,28.69
2023-08-27T00:27:23.169Z,28.70
2023-08-27T00:29:50.456Z,28.71
2023-08-27T00:32:25.453Z,28.72
2023-08-27T00:34:54.642Z,28.72
2023-08-27T00:37:23.271Z,28.72
2023-08-27T00:39:50.613Z,28.73
2023-08-27T00:42:17.661Z,28.73
2023-08-27T00:44:44.869Z,28.73
2023-08-27T00:47:12.751Z,28.72
2023-08-27T00:49:40.895Z,28.72
2023-08-27T00:52:10.417Z,28.73
2023-08-27T00:54:39.176Z,28.73
2023-08-27T00:57:07.298Z,28.73
2023-08-27T00:59:35.062Z,28.74
2023-08-27T01:02:02.428Z,28.73
2023-08-27T01:04:30.307Z,28.73
2023-08-27T01:07:04.392Z,28.74
2023-08-27T01:09:34.346Z,28.74
2023-08-27T01:12:30.008Z,28.74
2023-08-27T01:14:59.598Z,28.73
2023-08-27T01:17:27.592Z,28.74
2023-08-27T01:19:55.236Z,28.74
2023-08-27T01:22:22.185Z,28.74
2023-08-27T01:24:49.150Z,28.74
2023-08-27T01:27:27.878Z,28.75
2023-08-27T01:30:03.400Z,28.74
2023-08-27T01:32:44.098Z,28.74
2023-08-27T01:35:13.370Z,28.75
2023-08-27T01:37:41.248Z,28.75
2023-08-27T01:40:09.609Z,28.74
2023-08-27T01:42:37.303Z,28.75
2023-08-27T01:45:06.501Z,28.74
2023-08-27T01:47:33.989Z,28.74
2023-08-27T01:50:01.062Z,28.74
2023-08-27T01:52:28.390Z,28.74
2023-08-27T01:54:55.294Z,28.74
2023-08-27T01:57:22.345Z,28.74
2023-08-27T01:59:49.385Z,28.74
2023-08-27T02:02:16.469Z,28.75
2023-08-27T02:04:43.494Z,28.74
2023-08-27T02:07:10.976Z,28.74
2023-08-27T02:09:38.196Z,28.75
2023-08-27T02:12:05.739Z,28.74
2023-08-27T02:14:32.807Z,28.74
2023-08-27T02:17:00.173Z,28.75
2023-08-27T02:19:27.580Z,28.75
2023-08-27T02:21:54.963Z,28.74
2023-08-27T02:24:22.455Z,28.74
2023-08-27T02:26:49.807Z,28.73
2023-08-27T02:29:18.270Z,28.71
2023-08-27T02:31:45.650Z,28.69
2023-08-27T02:34:13.018Z,28.67
2023-08-27T02:36:40.152Z,28.65
2023-08-27T02:39:07.201Z,28.63
2023-08-27T02:41:34.146Z,28.60
2023-08-27T02:44:01.201Z,28.59
2023-08-27T02:46:28.827Z,28.57
2023-08-27T02:48:55.949Z,28.56
2023-08-27T02:51:25.024Z,28.55
2023-08-27T02:53:52.606Z,28.56
2023-08-27T02:56:21.057Z,28.56
2023-08-27T02:58:51.473Z,28.57
2023-08-27T03:01:21.822Z,28.58
2023-08-27T03:03:51.330Z,28.59
2023-08-27T03:06:19.948Z,28.59
2023-08-27T03:08:47.052Z,28.59
2023-08-27T03:11:14.413Z,28.59
2023-08-27T03:13:42.047Z,28.60
2023-08-27T03:16:09.146Z,28.59
2023-08-27T03:18:36.344Z,28.58
2023-08-27T03:21:03.548Z,28.57
2023-08-27T03:23:32.657Z,28.56
2023-08-27T03:26:00.126Z,28.56
2023-08-27T03:28:27.324Z,28.57
2023-08-27T03:30:54.656Z,28.58
2023-08-27T03:33:22.215Z,28.57
2023-08-27T03:35:55.333Z,28.57
2023-08-27T03:38:22.551Z,28.56
2023-08-27T03:40:53.942Z,28.56
2023-08-27T03:43:21.471Z,28.56
2023-08-27T03:45:48.962Z,28.55
2023-08-27T03:48:16.283Z,28.56
2023-08-27T03:50:43.424Z,28.57
2023-08-27T03:53:11.506Z,28.57
2023-08-27T03:55:43.155Z,28.57
2023-08-27T03:58:11.530Z,28.56
2023-08-27T04:00:40.041Z,28.55
2023-08-27T04:03:07.333Z,28.55
2023-08-27T04:05:34.716Z,28.53
2023-08-27T04:08:02.068Z,28.52
2023-08-27T04:10:29.400Z,28.51
2023-08-27T04:12:58.198Z,28.50
2023-08-27T04:15:27.238Z,28.50
2023-08-27T04:17:55.170Z,28.50
2023-08-27T04:20:22.336Z,28.50
2023-08-27T04:22:49.482Z,28.50
2023-08-27T04:25:17.364Z,28.50
2023-08-27T04:27:46.739Z,28.50
2023-08-27T04:30:14.608Z,28.49
2023-08-27T04:32:41.843Z,28.49
2023-08-27T04:35:09.529Z,28.47
2023-08-27T04:37:37.389Z,28.47
2023-08-27T04:40:05.053Z,28.47
2023-08-27T04:42:32.129Z,28.46
2023-08-27T04:44:59.456Z,28.46
2023-08-27T04:47:26.466Z,28.45
2023-08-27T04:49:54.168Z,28.45
2023-08-27T04:52:31.945Z,28.45
2023-08-27T04:54:59.952Z,28.45
2023-08-27T04:57:27.083Z,28.46
2023-08-27T04:59:56.095Z,28.46
2023-08-27T05:02:23.430Z,28.46
2023-08-27T05:04:52.066Z,28.45
2023-08-27T05:07:19.670Z,28.44
2023-08-27T05:09:47.976Z,28.44
2023-08-27T05:12:15.819Z,28.44
2023-08-27T05:14:43.592Z,28.44
2023-08-27T05:17:11.773Z,28.43
2023-08-27T05:19:39.431Z,28.43
2023-08-27T05:22:07.387Z,28.44
2023-08-27T05:24:36.385Z,28.43
2023-08-27T05:27:04.624Z,28.42
2023-08-27T05:29:32.671Z,28.42
2023-08-27T05:32:00.103Z,28.42
2023-08-27T05:34:28.107Z,28.42
2023-08-27T05:36:55.408Z,28.42
2023-08-27T05:39:22.407Z,28.41
2023-08-27T05:41:49.607Z,28.41
2023-08-27T05:44:16.735Z,28.42
2023-08-27T05:46:44.054Z,28.41
2023-08-27T05:49:12.916Z,28.41
2023-08-27T05:51:40.362Z,28.40
2023-08-27T05:54:07.409Z,28.41
2023-08-27T05:56:34.562Z,28.41
2023-08-27T05:59:01.902Z,28.41
2023-08-27T06:01:29.099Z,28.40
2023-08-27T06:03:57.438Z,28.39
2023-08-27T06:06:25.078Z,28.39
2023-08-27T06:08:52.143Z,28.41
2023-08-27T06:11:19.597Z,28.41
2023-08-27T06:13:46.846Z,28.40
2023-08-27T06:16:13.907Z,28.41
2023-08-27T06:18:40.892Z,28.41
2023-08-27T06:21:07.955Z,28.41
2023-08-27T06:23:36.040Z,28.41
2023-08-27T06:26:05.276Z,28.40
2023-08-27T06:28:32.852Z,28.41
2023-08-27T06:31:01.339Z,28.41
2023-08-27T06:33:28.515Z,28.42
2023-08-27T06:35:55.568Z,28.43
2023-08-27T06:38:22.549Z,28.45
2023-08-27T06:40:49.695Z,28.46
2023-08-27T06:43:16.708Z,28.47
2023-08-27T06:45:45.183Z,28.47
2023-08-27T06:48:12.420Z,28.48
2023-08-27T06:50:39.944Z,28.47
2023-08-27T06:53:07.096Z,28.47
2023-08-27T06:55:34.087Z,28.47
2023-08-27T06:58:01.795Z,28.46
2023-08-27T07:00:32.355Z,28.46
2023-08-27T07:03:00.040Z,28.47
2023-08-27T07:05:27.410Z,28.46
2023-08-27T07:07:54.619Z,28.46
2023-08-27T07:10:22.709Z,28.46
2023-08-27T07:12:49.976Z,28.45
2023-08-27T07:15:17.170Z,28.47
2023-08-27T07:17:44.453Z,28.46
2023-08-27T07:20:12.825Z,28.46
2023-08-27T07:22:40.266Z,28.45
2023-08-27T07:25:11.493Z,28.46
2023-08-27T07:27:38.979Z,28.46
2023-08-27T07:30:07.183Z,28.48
2023-08-27T07:32:34.274Z,28.48
2023-08-27T07:35:01.283Z,28.48
2023-08-27T07:37:33.969Z,28.48
2023-08-27T07:40:01.467Z,28.48
2023-08-27T07:42:28.927Z,28.48
2023-08-27T07:44:56.590Z,28.47
2023-08-27T07:47:24.252Z,28.47
2023-08-27T07:49:51.301Z,28.47
2023-08-27T07:52:18.554Z,28.46
2023-08-27T07:54:46.257Z,28.46
2023-08-27T07:57:14.154Z,28.45
2023-08-27T07:59:44.202Z,28.44
2023-08-27T08:02:11.462Z,28.44
2023-08-27T08:04:39.037Z,28.44
2023-08-27T08:07:06.471Z,28.44
2023-08-27T08:09:33.515Z,28.44
2023-08-27T08:12:00.457Z,28.44
2023-08-27T08:14:27.504Z,28.44
2023-08-27T08:16:54.654Z,28.44
2023-08-27T08:19:21.862Z,28.44
2023-08-27T08:21:48.957Z,28.44
2023-08-27T08:24:16.936Z,28.45
2023-08-27T08:26:44.273Z,28.45
2023-08-27T08:29:11.323Z,28.45
2023-08-27T08:31:38.479Z,28.45
2023-08-27T08:34:05.738Z,28.45
2023-08-27T08:36:34.188Z,28.45
2023-08-27T08:39:02.018Z,28.44
2023-08-27T08:41:29.635Z,28.44
2023-08-27T08:44:05.086Z,28.44
2023-08-27T08:46:36.824Z,28.44
2023-08-27T08:49:05.132Z,28.45
2023-08-27T08:51:34.524Z,28.45
2023-08-27T08:54:06.784Z,28.47
2023-08-27T08:56:41.496Z,28.47
2023-08-27T08:59:08.626Z,28.47
2023-08-27T09:01:36.790Z,28.48
2023-08-27T09:04:07.584Z,28.49
2023-08-27T09:06:35.843Z,28.51
2023-08-27T09:09:03.383Z,28.51
2023-08-27T09:11:32.418Z,28.51
2023-08-27T09:14:02.494Z,28.52
2023-08-27T09:16:29.683Z,28.53
2023-08-27T09:18:57.535Z,28.54
2023-08-27T09:21:24.515Z,28.55
2023-08-27T09:23:51.617Z,28.56
2023-08-27T09:26:21.619Z,28.57
2023-08-27T09:28:49.302Z,28.58
2023-08-27T09:31:56.754Z,28.60
2023-08-27T09:34:23.791Z,28.61
2023-08-27T09:36:50.826Z,28.63
2023-08-27T09:39:18.047Z,28.64
2023-08-27T09:41:45.775Z,28.65
2023-08-27T09:44:14.115Z,28.66
2023-08-27T09:46:44.373Z,28.67
2023-08-27T09:49:11.915Z,28.67
2023-08-27T09:51:41.834Z,28.68
2023-08-27T09:54:20.804Z,28.70
2023-08-27T09:56:49.838Z,28.70
2023-08-27T09:59:18.898Z,28.70
2023-08-27T10:01:53.495Z,28.70
2023-08-27T10:04:21.881Z,28.71
2023-08-27T10:06:49.698Z,28.71
2023-08-27T10:09:17.654Z,28.72
2023-08-27T10:11:47.182Z,28.72
2023-08-27T10:14:16.818Z,28.73
2023-08-27T10:16:43.900Z,28.73
2023-08-27T10:19:11.569Z,28.73
2023-08-27T10:21:38.883Z,28.72
2023-08-27T10:24:07.874Z,28.72
2023-08-27T10:26:35.357Z,28.72
2023-08-27T10:29:04.728Z,28.72
2023-08-27T10:31:31.837Z,28.73
2023-08-27T10:33:59.111Z,28.73
2023-08-27T10:36:32.925Z,28.73
2023-08-27T10:39:04.057Z,28.72
2023-08-27T10:41:35.438Z,28.73
2023-08-27T10:44:02.995Z,28.73
2023-08-27T10:46:30.403Z,28.73
2023-08-27T10:48:57.408Z,28.74
2023-08-27T10:51:34.370Z,28.73
2023-08-27T10:54:06.442Z,28.72
2023-08-27T10:56:40.514Z,28.71
2023-08-27T10:59:12.188Z,28.70
2023-08-27T11:02:00.534Z,28.69
2023-08-27T11:04:37.639Z,28.69
2023-08-27T11:07:12.631Z,28.70
2023-08-27T11:10:05.695Z,28.69
2023-08-27T11:12:37.177Z,28.69
2023-08-27T11:15:15.176Z,28.70
2023-08-27T11:17:43.066Z,28.70
2023-08-27T11:20:24.552Z,28.71
2023-08-27T11:22:59.313Z,28.72
2023-08-27T11:25:38.203Z,28.72
2023-08-27T11:28:08.156Z,28.72
2023-08-27T11:30:35.121Z,28.73
2023-08-27T11:33:03.756Z,28.73
2023-08-27T11:35:30.898Z,28.73
2023-08-27T11:37:58.578Z,28.73
2023-08-27T11:40:28.221Z,28.73
2023-08-27T11:42:57.625Z,28.74
2023-08-27T11:45:37.959Z,28.73
2023-08-27T11:48:10.210Z,28.73
2023-08-27T11:50:44.149Z,28.73
2023-08-27T11:53:12.037Z,28.74
2023-08-27T11:55:39.815Z,28.74
2023-08-27T11:58:08.088Z,28.74
2023-08-27T12:00:35.136Z,28.76
2023-08-27T12:03:02.722Z,28.77
2023-08-27T12:05:31.065Z,28.77
2023-08-27T12:07:58.940Z,28.77
2023-08-27T12:10:26.608Z,28.78
2023-08-27T12:12:53.781Z,28.78
2023-08-27T12:15:20.809Z,28.79
2023-08-27T12:17:48.466Z,28.80
2023-08-27T12:20:16.494Z,28.80
2023-08-27T12:22:44.704Z,28.80
2023-08-27T12:25:13.314Z,28.81
2023-08-27T12:27:44.050Z,28.81
2023-08-27T12:30:12.072Z,28.82
2023-08-27T12:32:39.247Z,28.82
2023-08-27T12:35:08.995Z,28.82
2023-08-27T12:37:36.232Z,28.81
2023-08-27T12:40:03.720Z,28.80
2023-08-27T12:42:30.900Z,28.81
2023-08-27T12:44:58.024Z,28.80
2023-08-27T12:47:25.103Z,28.79
2023-08-27T12:49:52.454Z,28.79
2023-08-27T12:52:20.692Z,28.78
2023-08-27T12:54:48.389Z,28.77
2023-08-27T12:57:15.366Z,28.77
2023-08-27T12:59:42.392Z,28.77
2023-08-27T13:02:10.790Z,28.78
2023-08-27T13:04:38.145Z,28.79
2023-08-27T13:07:05.142Z,28.80
2023-08-27T13:09:32.263Z,28.80
2023-08-27T13:12:00.000Z,28.81
2023-08-27T13:14:27.115Z,28.82
2023-08-27T13:16:54.315Z,28.83
2023-08-27T13:19:21.387Z,28.84
2023-08-27T13:21:48.738Z,28.85
2023-08-27T13:24:16.116Z,28.84
2023-08-27T13:26:43.212Z,28.81
2023-08-27T13:29:10.303Z,28.79
2023-08-27T13:31:38.841Z,28.77
2023-08-27T13:34:07.252Z,28.75
2023-08-27T13:36:34.299Z,28.73
2023-08-27T13:39:01.520Z,28.72
2023-08-27T13:41:29.035Z,28.71
2023-08-27T13:43:57.822Z,28.70
2023-08-27T13:46:25.141Z,28.69
2023-08-27T13:48:52.223Z,28.67
2023-08-27T13:51:19.960Z,28.67
2023-08-27T13:53:46.917Z,28.67
2023-08-27T13:56:14.040Z,28.68
2023-08-27T13:58:42.571Z,28.70
2023-08-27T14:01:09.778Z,28.72
2023-08-27T14:03:37.146Z,28.73
2023-08-27T14:06:04.821Z,28.73
2023-08-27T14:08:32.079Z,28.73
2023-08-27T14:10:59.742Z,28.73
2023-08-27T14:13:27.217Z,28.72
2023-08-27T14:15:55.642Z,28.73
2023-08-27T14:18:23.009Z,28.74
2023-08-27T14:20:50.336Z,28.75
2023-08-27T14:23:17.460Z,28.75
2023-08-27T14:25:44.880Z,28.76
2023-08-27T14:28:12.047Z,28.75
2023-08-27T14:30:39.476Z,28.75
2023-08-27T14:33:06.873Z,28.74
2023-08-27T14:35:34.348Z,28.74
2023-08-27T14:38:01.727Z,28.73
2023-08-27T14:40:29.510Z,28.72
2023-08-27T14:42:56.626Z,28.71
2023-08-27T14:45:23.873Z,28.70
2023-08-27T14:47:53.986Z,28.69
2023-08-27T14:50:21.646Z,28.68
2023-08-27T14:52:48.838Z,28.68
2023-08-27T14:55:16.190Z,28.67
2023-08-27T14:57:49.828Z,28.67
2023-08-27T15:00:18.298Z,28.66
2023-08-27T15:02:45.504Z,28.66
2023-08-27T15:05:14.008Z,28.67
2023-08-27T15:07:41.581Z,28.68
2023-08-27T15:10:09.564Z,28.68
2023-08-27T15:12:36.683Z,28.70
2023-08-27T15:15:04.099Z,28.72
2023-08-27T15:17:31.250Z,28.74
2023-08-27T15:20:00.432Z,28.75
2023-08-27T15:22:27.494Z,28.77
2023-08-27T15:24:54.548Z,28.77
2023-08-27T15:27:21.646Z,28.79
2023-08-27T15:29:48.713Z,28.79
2023-08-27T15:32:15.901Z,28.78
2023-08-27T15:34:43.558Z,28.79
2023-08-27T15:37:10.644Z,28.79
2023-08-27T15:39:37.895Z,28.79
2023-08-27T15:42:05.356Z,28.79
2023-08-27T15:44:32.349Z,28.79
2023-08-27T15:46:59.558Z,28.80
2023-08-27T15:49:26.667Z,28.80
2023-08-27T15:51:53.859Z,28.80
2023-08-27T15:54:20.953Z,28.80
2023-08-27T15:56:48.155Z,28.80
2023-08-27T15:59:15.206Z,28.80
2023-08-27T16:01:42.206Z,28.81
2023-08-27T16:04:09.166Z,28.81
2023-08-27T16:06:36.337Z,28.83
2023-08-27T16:09:03.593Z,28.83
2023-08-27T16:11:30.738Z,28.84
2023-08-27T16:13:57.893Z,28.84
2023-08-27T16:16:25.484Z,28.84
2023-08-27T16:18:52.572Z,28.85
2023-08-27T16:21:19.684Z,28.85
2023-08-27T16:23:46.925Z,28.86
2023-08-27T16:26:14.167Z,28.88
2023-08-27T16:28:41.313Z,28.88
2023-08-27T16:31:08.813Z,28.88
2023-08-27T16:33:36.012Z,28.88
2023-08-27T16:36:03.106Z,28.89
2023-08-27T16:38:30.211Z,28.88
2023-08-27T16:40:57.249Z,28.86
2023-08-27T16:43:24.543Z,28.86
2023-08-27T16:45:56.048Z,28.84
2023-08-27T16:48:24.025Z,28.84
2023-08-27T16:50:51.017Z,28.83
2023-08-27T16:53:18.067Z,28.81
2023-08-27T16:55:50.403Z,28.81
2023-08-27T16:58:17.755Z,28.81
2023-08-27T17:00:45.305Z,28.80
2023-08-27T17:03:17.445Z,28.79
2023-08-27T17:05:45.908Z,28.79
2023-08-27T17:08:13.525Z,28.79
2023-08-27T17:10:40.661Z,28.79
2023-08-27T17:13:07.732Z,28.78
2023-08-27T17:15:34.868Z,28.78
2023-08-27T17:18:02.425Z,28.78
2023-08-27T17:20:30.161Z,28.78
2023-08-27T17:22:57.231Z,28.76
2023-08-27T17:25:24.208Z,28.75
2023-08-27T17:27:51.279Z,28.75
2023-08-27T17:30:18.784Z,28.74
2023-08-27T17:32:45.960Z,28.74
2023-08-27T17:35:13.599Z,28.73
2023-08-27T17:37:40.958Z,28.72
2023-08-27T17:40:08.810Z,28.71
2023-08-27T17:42:35.812Z,28.72
2023-08-27T17:45:04.456Z,28.73
2023-08-27T17:47:32.098Z,28.73
2023-08-27T17:49:59.300Z,28.74
2023-08-27T17:52:26.714Z,28.74
2023-08-27T17:54:53.696Z,28.74
2023-08-27T17:57:20.806Z,28.74
2023-08-27T17:59:47.718Z,28.73
2023-08-27T18:02:14.931Z,28.74
2023-08-27T18:04:42.318Z,28.74
2023-08-27T18:07:09.418Z,28.74
2023-08-27T18:09:36.610Z,28.74
2023-08-27T18:12:04.596Z,28.73
2023-08-27T18:14:31.782Z,28.72
2023-08-27T18:16:58.931Z,28.71
2023-08-27T18:19:26.081Z,28.71
2023-08-27T18:21:53.949Z,28.69
2023-08-27T18:24:21.151Z,28.69
2023-08-27T18:26:48.622Z,28.70
2023-08-27T18:29:15.651Z,28.68
2023-08-27T18:31:42.872Z,28.68
2023-08-27T18:34:10.105Z,28.67
2023-08-27T18:36:37.455Z,28.66
2023-08-27T18:39:04.664Z,28.66
2023-08-27T18:41:31.763Z,28.65
2023-08-27T18:43:58.800Z,28.65
2023-08-27T18:46:30.217Z,28.64
2023-08-27T18:48:57.312Z,28.64
2023-08-27T18:51:24.461Z,28.65
2023-08-27T18:53:51.494Z,28.65
2023-08-27T18:56:18.525Z,28.65
2023-08-27T18:58:45.595Z,28.65
2023-08-27T19:01:12.706Z,28.65
2023-08-27T19:03:40.509Z,28.65
2023-08-27T19:06:07.484Z,28.66
2023-08-27T19:08:35.520Z,28.66
2023-08-27T19:11:03.186Z,28.67
2023-08-27T19:13:31.786Z,28.67
2023-08-27T19:15:59.142Z,28.68
2023-08-27T19:18:26.313Z,28.67
2023-08-27T19:20:53.796Z,28.69
2023-08-27T19:23:20.888Z,28.69
2023-08-27T19:25:49.063Z,28.70
2023-08-27T19:28:16.510Z,28.70
2023-08-27T19:30:44.103Z,28.70
2023-08-27T19:33:11.614Z,28.69
2023-08-27T19:35:39.128Z,28.69
2023-08-27T19:38:07.568Z,28.70
2023-08-27T19:40:34.661Z,28.70
2023-08-27T19:43:02.279Z,28.70
2023-08-27T19:45:29.435Z,28.70
2023-08-27T19:47:57.035Z,28.70
2023-08-27T19:50:25.351Z,28.70
2023-08-27T19:52:54.215Z,28.70
2023-08-27T19:55:21.651Z,28.71
2023-08-27T19:57:48.853Z,28.71
2023-08-27T20:00:16.531Z,28.72
2023-08-27T20:02:43.581Z,28.73
2023-08-27T20:05:10.874Z,28.75
2023-08-27T20:07:37.884Z,28.77
2023-08-27T20:10:05.544Z,28.77
2023-08-27T20:12:32.545Z,28.78
2023-08-27T20:14:59.822Z,28.79
2023-08-27T20:17:27.371Z,28.79
2023-08-27T20:19:54.322Z,28.79
2023-08-27T20:22:21.385Z,28.79
2023-08-27T20:24:48.479Z,28.79
2023-08-27T20:27:15.784Z,28.79
2023-08-27T20:29:43.341Z,28.79
2023-08-27T20:32:10.293Z,28.79
2023-08-27T20:34:37.400Z,28.79
2023-08-27T20:37:04.817Z,28.80
2023-08-27T20:39:31.887Z,28.79
2023-08-27T20:41:59.612Z,28.79
2023-08-27T20:44:28.518Z,28.78
2023-08-27T20:46:56.495Z,28.77
2023-08-27T20:49:23.681Z,28.78
2023-08-27T20:51:50.662Z,28.78
2023-08-27T20:54:19.637Z,28.77
2023-08-27T20:56:47.244Z,28.75
2023-08-27T20:59:14.460Z,28.73
2023-08-27T21:01:41.539Z,28.71
2023-08-27T21:04:08.869Z,28.70
2023-08-27T21:06:36.025Z,28.69
2023-08-27T21:09:03.678Z,28.68
2023-08-27T21:11:30.704Z,28.67
2023-08-27T21:13:58.035Z,28.66
2023-08-27T21:16:25.228Z,28.66
2023-08-27T21:18:52.486Z,28.65
2023-08-27T21:21:19.525Z,28.64
2023-08-27T21:23:46.545Z,28.64
2023-08-27T21:26:13.943Z,28.64
2023-08-27T21:28:41.088Z,28.63
2023-08-27T21:31:23.466Z,28.64
2023-08-27T21:33:55.410Z,28.63
2023-08-27T21:36:22.600Z,28.64
2023-08-27T21:38:49.593Z,28.64
2023-08-27T21:41:16.867Z,28.64
2023-08-27T21:43:44.191Z,28.64
2023-08-27T21:46:11.439Z,28.64
2023-08-27T21:48:38.659Z,28.63
2023-08-27T21:51:05.715Z,28.63
2023-08-27T21:53:33.263Z,28.63
2023-08-27T21:56:00.382Z,28.64
2023-08-27T21:58:27.394Z,28.64
2023-08-27T22:00:54.542Z,28.64
2023-08-27T22:03:24.179Z,28.63
2023-08-27T22:05:51.939Z,28.64
2023-08-27T22:08:19.147Z,28.64
2023-08-27T22:10:46.280Z,28.64
2023-08-27T22:13:13.440Z,28.63
2023-08-27T22:15:40.891Z,28.63
2023-08-27T22:18:08.098Z,28.63
2023-08-27T22:20:35.946Z,28.63
2023-08-27T22:23:03.290Z,28.62
2023-08-27T22:25:30.616Z,28.62
2023-08-27T22:27:57.663Z,28.62
2023-08-27T22:30:24.934Z,28.62
2023-08-27T22:32:52.014Z,28.62
2023-08-27T22:35:21.886Z,28.62
2023-08-27T22:37:48.918Z,28.61
2023-08-27T22:40:15.966Z,28.60
2023-08-27T22:42:43.641Z,28.61
2023-08-27T22:45:11.137Z,28.61
2023-08-27T22:47:38.367Z,28.61
2023-08-27T22:50:06.226Z,28.61
2023-08-27T22:52:33.274Z,28.62
2023-08-27T22:55:00.515Z,28.63
2023-08-27T22:57:27.503Z,28.64
2023-08-27T22:59:54.609Z,28.65
2023-08-27T23:02:22.413Z,28.68
2023-08-27T23:04:49.888Z,28.70
2023-08-27T23:07:17.080Z,28.72
2023-08-27T23:09:44.532Z,28.73
2023-08-27T23:12:11.911Z,28.75
2023-08-27T23:14:38.977Z,28.76
2023-08-27T23:17:06.094Z,28.76
2023-08-27T23:19:35.916Z,28.78
2023-08-27T23:22:02.973Z,28.79
2023-08-27T23:24:30.189Z,28.79
2023-08-27T23:26:57.144Z,28.80
2023-08-27T23:29:26.317Z,28.82
2023-08-27T23:31:53.493Z,28.82
2023-08-27T23:34:21.017Z,28.83
2023-08-27T23:36:48.204Z,28.84
2023-08-27T23:39:15.207Z,28.84
2023-08-27T23:41:42.504Z,28.84
2023-08-27T23:44:09.593Z,28.84
2023-08-27T23:46:36.669Z,28.85
2023-08-27T23:49:03.955Z,28.85
2023-08-27T23:51:30.994Z,28.85
2023-08-27T23:53:58.161Z,28.84
2023-08-27T23:56:25.133Z,28.83
2023-08-27T23:58:52.081Z,28.82
